Sct Santiago — V7NF7 — position and weather

sailwx.info

Track history (hours):
 
Tides and Currents Weather Stations Pressure Air Temp Water Temp Dewpoint Dewpoint Depression Visibility Wind Speed Wind Dir Waves Ship Positions

Sct Santiago

Last reported at 2014-Jul-30 00:25 UTC. Time now 2014-Aug-02 08:45 UTC.
Position N 01°09' E 103°46'.

Length 294 m; draft 13.4 m.

Type: Cargo ship. MMSI: 538002953.

Date/timePositionNaut miles runAvg speedWind from/ knotsBaromVisibWave heightAir tempDewpointWater temp
2014-Jul-30 00:25N 01°09' E 103°46'911.1
2014-Jul-29 23:34N 01°14' E 103°54'1 0.6
2014-Jul-29 22:33N 01°15' E 103°54'0 0.0
2014-Jul-29 21:33N 01°15' E 103°54'0 0.0
2014-Jul-29 20:30N 01°15' E 103°54'0 0.0
2014-Jul-29 19:33N 01°15' E 103°54'0 0.0
2014-Jul-29 18:33N 01°15' E 103°54'0 0.1
2014-Jul-29 17:30N 01°15' E 103°54'0 0.2
2014-Jul-29 16:33N 01°15' E 103°54'0 0.1
2014-Jul-29 15:33N 01°15' E 103°54'0 0.0
2014-Jul-29 14:33N 01°15' E 103°54'0 0.0
2014-Jul-29 13:33N 01°15' E 103°54'0 0.0
2014-Jul-29 12:33N 01°15' E 103°54'0 0.0
2014-Jul-29 11:33N 01°15' E 103°54'0 0.0
2014-Jul-29 10:33N 01°15' E 103°54'0 0.0
2014-Jul-29 09:30N 01°15' E 103°54'0 0.0
2014-Jul-29 08:33N 01°15' E 103°54'0 0.2
2014-Jul-29 07:12N 01°15' E 103°54'0 0.2
2014-Jul-29 06:33N 01°15' E 103°54'0 0.0
2014-Jul-29 05:32N 01°15' E 103°54'0 0.1
2014-Jul-29 04:32N 01°15' E 103°54'4 4.0
2014-Jul-29 03:33N 01°12' E 103°51'6 5.7
2014-Jul-29 02:31N 01°16' E 103°46'0 0.0
2014-Jul-28 23:04N 01°16' E 103°46'0 0.0
2014-Jul-28 22:13N 01°16' E 103°46'0 0.0
2014-Jul-28 19:04N 01°16' E 103°46'0 0.0
2014-Jul-28 18:22N 01°16' E 103°46'0 0.0
2014-Jul-28 17:07N 01°16' E 103°46'0 0.0
2014-Jul-28 16:31N 01°16' E 103°46'0 0.0
2014-Jul-28 14:22N 01°16' E 103°46'0 0.0
2014-Jul-28 13:31N 01°16' E 103°46'0 0.0
2014-Jul-28 12:22N 01°16' E 103°46'0 0.0
2014-Jul-28 11:16N 01°16' E 103°46'0 0.0
2014-Jul-28 10:28N 01°16' E 103°46'0 0.0
2014-Jul-28 09:04N 01°16' E 103°46'0 0.0
2014-Jul-28 08:22N 01°16' E 103°46'0 0.0
2014-Jul-28 06:25N 01°16' E 103°46'0 0.0
2014-Jul-28 05:28N 01°16' E 103°46'0 0.0
2014-Jul-28 03:22N 01°16' E 103°46'0 0.0
2014-Jul-28 02:28N 01°16' E 103°46'0 0.0
2014-Jul-28 01:04N 01°16' E 103°46'0 0.0
2014-Jul-28 00:10N 01°16' E 103°46'0 0.0
2014-Jul-27 23:25N 01°16' E 103°46'0 0.0
2014-Jul-27 22:16N 01°16' E 103°46'0 0.0
2014-Jul-27 21:25N 01°16' E 103°46'0 0.0
2014-Jul-27 20:19N 01°16' E 103°46'0 0.0
2014-Jul-27 19:25N 01°16' E 103°46'0 0.0
2014-Jul-27 18:31N 01°16' E 103°46'0 0.0
2014-Jul-27 17:19N 01°16' E 103°46'0 0.0
2014-Jul-27 16:10N 01°16' E 103°46'0 0.0
2014-Jul-27 15:34N 01°16' E 103°46'0 0.0
2014-Jul-27 14:33N 01°16' E 103°46'0 0.0
2014-Jul-27 13:33N 01°16' E 103°46'0 0.0
2014-Jul-27 12:30N 01°16' E 103°46'0 0.0
2014-Jul-27 09:30N 01°16' E 103°46'0 0.0
2014-Jul-27 08:27N 01°16' E 103°46'0 0.0
2014-Jul-27 05:15N 01°16' E 103°46'0 0.4
2014-Jul-27 04:33N 01°16' E 103°46'2 2.1
2014-Jul-27 03:33N 01°14' E 103°47'5 5.1
2014-Jul-27 02:33N 01°13' E 103°52'7 7.3
2014-Jul-27 01:33N 01°15' E 103°59'  
2014-Jul-23 00:27N 22°18' E 114°06'1110.1
2014-Jul-22 23:23N 22°22' E 113°55'7 8.6
2014-Jul-22 22:33N 22°28' E 113°52'0 0.1
2014-Jul-22 18:29N 22°28' E 113°52'0 0.0
2014-Jul-22 16:34N 22°28' E 113°52'0 0.0
2014-Jul-22 15:28N 22°28' E 113°52'0 0.0
2014-Jul-22 11:34N 22°28' E 113°52'0 0.0
2014-Jul-22 10:27N 22°28' E 113°52'0 0.1
2014-Jul-22 09:34N 22°28' E 113°53'0 0.1
2014-Jul-22 08:33N 22°28' E 113°52'0 0.0
2014-Jul-22 07:34N 22°28' E 113°52'0 0.0
2014-Jul-22 06:33N 22°28' E 113°52'0 0.0
2014-Jul-22 05:33N 22°28' E 113°52'1 0.7
2014-Jul-22 04:34N 22°27' E 113°53'9 8.0
2014-Jul-22 03:23N 22°21' E 113°60'9 8.9
2014-Jul-22 02:25N 22°15' E 114°07'10 9.3
2014-Jul-22 01:22N 22°07' E 114°13'15 3.5
2014-Jul-21 21:12N 22°07' E 113°57'5 6.5
2014-Jul-21 20:29N 22°06' E 113°53'1 7.6
2014-Jul-21 20:18N 22°06' E 113°51'911.9
2014-Jul-21 19:33N 22°15' E 113°49'7 6.9
2014-Jul-21 18:33N 22°21' E 113°47'9 8.9
2014-Jul-21 17:33N 22°30' E 113°45'10 8.4
2014-Jul-21 16:26N 22°39' E 113°41'5 0.2
2014-Jul-20 12:04N 22°34' E 113°43'714.5
2014-Jul-20 11:34N 22°27' E 113°45'1414.1
2014-Jul-20 10:33N 22°13' E 113°49'9 8.9
2014-Jul-20 09:33N 22°06' E 113°54'0 0.0
2014-Jul-20 05:15N 22°06' E 113°54'0 0.0
2014-Jul-20 04:33N 22°06' E 113°54'0 0.1
2014-Jul-20 03:33N 22°06' E 113°54'0 0.2
2014-Jul-20 02:33N 22°06' E 113°55'0 0.1
2014-Jul-20 01:21N 22°06' E 113°55'  
Track history (hours):
 
Tides and Currents Weather Stations Pressure Air Temp Water Temp Dewpoint Dewpoint Depression Visibility Wind Speed Wind Dir Waves Ship Positions

Sct Santiago

Last reported at 2014-Jul-30 00:25 UTC. Time now 2014-Aug-02 08:45 UTC.
Position N 01°09' E 103°46'.

Length 294 m; draft 13.4 m.

Type: Cargo ship. MMSI: 538002953.

Date/timePositionNaut miles runAvg speedWind from/ knotsBaromVisibWave heightAir tempDewpointWater temp
2014-Jul-30 00:25N 01°09' E 103°46'911.1
2014-Jul-29 23:34N 01°14' E 103°54'1 0.6
2014-Jul-29 22:33N 01°15' E 103°54'0 0.0
2014-Jul-29 21:33N 01°15' E 103°54'0 0.0
2014-Jul-29 20:30N 01°15' E 103°54'0 0.0
2014-Jul-29 19:33N 01°15' E 103°54'0 0.0
2014-Jul-29 18:33N 01°15' E 103°54'0 0.1
2014-Jul-29 17:30N 01°15' E 103°54'0 0.2
2014-Jul-29 16:33N 01°15' E 103°54'0 0.1
2014-Jul-29 15:33N 01°15' E 103°54'0 0.0
2014-Jul-29 14:33N 01°15' E 103°54'0 0.0
2014-Jul-29 13:33N 01°15' E 103°54'0 0.0
2014-Jul-29 12:33N 01°15' E 103°54'0 0.0
2014-Jul-29 11:33N 01°15' E 103°54'0 0.0
2014-Jul-29 10:33N 01°15' E 103°54'0 0.0
2014-Jul-29 09:30N 01°15' E 103°54'0 0.0
2014-Jul-29 08:33N 01°15' E 103°54'0 0.2
2014-Jul-29 07:12N 01°15' E 103°54'0 0.2
2014-Jul-29 06:33N 01°15' E 103°54'0 0.0
2014-Jul-29 05:32N 01°15' E 103°54'0 0.1
2014-Jul-29 04:32N 01°15' E 103°54'4 4.0
2014-Jul-29 03:33N 01°12' E 103°51'6 5.7
2014-Jul-29 02:31N 01°16' E 103°46'0 0.0
2014-Jul-28 23:04N 01°16' E 103°46'0 0.0
2014-Jul-28 22:13N 01°16' E 103°46'0 0.0
2014-Jul-28 19:04N 01°16' E 103°46'0 0.0
2014-Jul-28 18:22N 01°16' E 103°46'0 0.0
2014-Jul-28 17:07N 01°16' E 103°46'0 0.0
2014-Jul-28 16:31N 01°16' E 103°46'0 0.0
2014-Jul-28 14:22N 01°16' E 103°46'0 0.0
2014-Jul-28 13:31N 01°16' E 103°46'0 0.0
2014-Jul-28 12:22N 01°16' E 103°46'0 0.0
2014-Jul-28 11:16N 01°16' E 103°46'0 0.0
2014-Jul-28 10:28N 01°16' E 103°46'0 0.0
2014-Jul-28 09:04N 01°16' E 103°46'0 0.0
2014-Jul-28 08:22N 01°16' E 103°46'0 0.0
2014-Jul-28 06:25N 01°16' E 103°46'0 0.0
2014-Jul-28 05:28N 01°16' E 103°46'0 0.0
2014-Jul-28 03:22N 01°16' E 103°46'0 0.0
2014-Jul-28 02:28N 01°16' E 103°46'0 0.0
2014-Jul-28 01:04N 01°16' E 103°46'0 0.0
2014-Jul-28 00:10N 01°16' E 103°46'0 0.0
2014-Jul-27 23:25N 01°16' E 103°46'0 0.0
2014-Jul-27 22:16N 01°16' E 103°46'0 0.0
2014-Jul-27 21:25N 01°16' E 103°46'0 0.0
2014-Jul-27 20:19N 01°16' E 103°46'0 0.0
2014-Jul-27 19:25N 01°16' E 103°46'0 0.0
2014-Jul-27 18:31N 01°16' E 103°46'0 0.0
2014-Jul-27 17:19N 01°16' E 103°46'0 0.0
2014-Jul-27 16:10N 01°16' E 103°46'0 0.0
2014-Jul-27 15:34N 01°16' E 103°46'0 0.0
2014-Jul-27 14:33N 01°16' E 103°46'0 0.0
2014-Jul-27 13:33N 01°16' E 103°46'0 0.0
2014-Jul-27 12:30N 01°16' E 103°46'0 0.0
2014-Jul-27 09:30N 01°16' E 103°46'0 0.0
2014-Jul-27 08:27N 01°16' E 103°46'0 0.0
2014-Jul-27 05:15N 01°16' E 103°46'0 0.4
2014-Jul-27 04:33N 01°16' E 103°46'2 2.1
2014-Jul-27 03:33N 01°14' E 103°47'5 5.1
2014-Jul-27 02:33N 01°13' E 103°52'7 7.3
2014-Jul-27 01:33N 01°15' E 103°59'  
2014-Jul-23 00:27N 22°18' E 114°06'1110.1
2014-Jul-22 23:23N 22°22' E 113°55'7 8.6
2014-Jul-22 22:33N 22°28' E 113°52'0 0.1
2014-Jul-22 18:29N 22°28' E 113°52'0 0.0
2014-Jul-22 16:34N 22°28' E 113°52'0 0.0
2014-Jul-22 15:28N 22°28' E 113°52'0 0.0
2014-Jul-22 11:34N 22°28' E 113°52'0 0.0
2014-Jul-22 10:27N 22°28' E 113°52'0 0.1
2014-Jul-22 09:34N 22°28' E 113°53'0 0.1
2014-Jul-22 08:33N 22°28' E 113°52'0 0.0
2014-Jul-22 07:34N 22°28' E 113°52'0 0.0
2014-Jul-22 06:33N 22°28' E 113°52'0 0.0
2014-Jul-22 05:33N 22°28' E 113°52'1 0.7
2014-Jul-22 04:34N 22°27' E 113°53'9 8.0
2014-Jul-22 03:23N 22°21' E 113°60'9 8.9
2014-Jul-22 02:25N 22°15' E 114°07'10 9.3
2014-Jul-22 01:22N 22°07' E 114°13'15 3.5
2014-Jul-21 21:12N 22°07' E 113°57'5 6.5
2014-Jul-21 20:29N 22°06' E 113°53'1 7.6
2014-Jul-21 20:18N 22°06' E 113°51'911.9
2014-Jul-21 19:33N 22°15' E 113°49'7 6.9
2014-Jul-21 18:33N 22°21' E 113°47'9 8.9
2014-Jul-21 17:33N 22°30' E 113°45'10 8.4
2014-Jul-21 16:26N 22°39' E 113°41'5 0.2
2014-Jul-20 12:04N 22°34' E 113°43'714.5
2014-Jul-20 11:34N 22°27' E 113°45'1414.1
2014-Jul-20 10:33N 22°13' E 113°49'9 8.9
2014-Jul-20 09:33N 22°06' E 113°54'0 0.0
2014-Jul-20 05:15N 22°06' E 113°54'0 0.0
2014-Jul-20 04:33N 22°06' E 113°54'0 0.1
2014-Jul-20 03:33N 22°06' E 113°54'0 0.2
2014-Jul-20 02:33N 22°06' E 113°55'0 0.1
2014-Jul-20 01:21N 22°06' E 113°55'  

Dump ship's entire track history